Time;durP1;ratioP1;P1;durP2;ratioP2;P2;SDS_P1;SDS_P2;PMS_P1;PMS_P2;Temp;Humidity;BMP_temperature;BMP_pressure;BME280_temperature;BME280_humidity;BME280_pressure;Samples;Min_cycle;Max_cycle;Signal;HPM_P1;HPM_P2
2023/08/07 00:01:35;;;;;;;6.72;5.15;;;;;;;14.77;100.00;99926.28;4910918;29;20052;-90
2023/08/07 00:04:02;;;;;;;6.35;5.45;;;;;;;14.80;100.00;99934.06;4894482;29;20103;-93
2023/08/07 00:06:29;;;;;;;9.65;5.18;;;;;;;14.86;100.00;99923.31;4923233;29;20055;-90
2023/08/07 00:08:55;;;;;;;7.75;4.85;;;;;;;14.91;100.00;99924.91;4912929;29;20110;-92
2023/08/07 00:11:22;;;;;;;8.10;5.03;;;;;;;14.95;100.00;99927.34;4881414;29;20080;-91
2023/08/07 00:13:49;;;;;;;8.55;4.38;;;;;;;14.98;100.00;99926.34;4915691;29;20059;-88
2023/08/07 00:16:17;;;;;;;6.63;4.72;;;;;;;14.98;100.00;99931.63;4928652;29;20052;-89
2023/08/07 00:18:43;;;;;;;5.40;4.90;;;;;;;14.99;100.00;99930.72;4899526;29;20055;-89
2023/08/07 00:21:10;;;;;;;6.63;5.57;;;;;;;15.02;100.00;99935.88;4916864;29;20563;-90
2023/08/07 00:23:39;;;;;;;7.72;5.38;;;;;;;15.05;100.00;99936.59;4924332;29;20470;-91
2023/08/07 00:26:06;;;;;;;6.22;4.30;;;;;;;15.08;100.00;99926.88;4916459;29;20126;-88
2023/08/07 00:28:33;;;;;;;7.60;4.78;;;;;;;15.09;100.00;99921.53;4935201;29;20036;-89
2023/08/07 00:30:59;;;;;;;8.45;5.35;;;;;;;15.08;100.00;99926.88;4918605;29;20055;-87
2023/08/07 00:33:26;;;;;;;5.78;4.85;;;;;;;15.00;100.00;99933.28;4917074;29;20051;-89
2023/08/07 00:35:53;;;;;;;5.70;4.75;;;;;;;14.93;100.00;99929.19;4902311;29;20106;-88
2023/08/07 00:38:20;;;;;;;6.22;5.53;;;;;;;14.86;100.00;99939.13;4917516;29;20052;-89
2023/08/07 00:40:46;;;;;;;5.65;5.13;;;;;;;14.81;100.00;99940.19;4924242;29;20044;-90
2023/08/07 00:43:13;;;;;;;8.05;5.25;;;;;;;14.75;100.00;99943.06;4935512;29;20099;-88
2023/08/07 00:45:47;;;;;;;7.63;5.25;;;;;;;14.72;100.00;99949.31;4921367;29;20045;-89
2023/08/07 00:48:14;;;;;;;;;;;;;;;14.69;100.00;99939.75;4907278;29;20047;-88
2023/08/07 00:50:43;;;;;;;5.90;4.80;;;;;;;14.68;100.00;99945.94;4920927;29;20286;-88
2023/08/07 00:53:10;;;;;;;9.90;5.53;;;;;;;14.67;100.00;99946.00;4920899;29;20044;-89
2023/08/07 00:55:37;;;;;;;7.40;5.65;;;;;;;14.66;100.00;99947.75;4909464;29;20048;-94
2023/08/07 00:58:06;;;;;;;7.90;6.07;;;;;;;14.60;100.00;99950.59;4940056;29;20077;-89
2023/08/07 01:00:32;;;;;;;11.10;6.18;;;;;;;14.62;100.00;99961.06;4922884;29;20062;-89
2023/08/07 01:03:00;;;;;;;8.85;5.65;;;;;;;14.58;100.00;99954.22;4942925;29;20051;-89
2023/08/07 01:05:27;;;;;;;9.30;7.22;;;;;;;14.55;100.00;99960.44;4925427;29;20051;-89
2023/08/07 01:07:55;;;;;;;9.40;6.30;;;;;;;14.53;100.00;99951.72;4925474;29;20039;-88
2023/08/07 01:10:42;;;;;;;8.02;7.03;;;;;;;14.52;100.00;99948.25;4927332;29;20081;-87
2023/08/07 01:13:35;;;;;;;8.50;6.72;;;;;;;14.49;100.00;99950.13;4943478;29;20050;-88
2023/08/07 01:16:14;;;;;;;9.85;6.53;;;;;;;14.43;100.00;99943.31;4920003;29;20062;-88
2023/08/07 01:18:43;;;;;;;8.65;6.30;;;;;;;14.41;100.00;99944.28;4926728;29;20463;-88
2023/08/07 01:21:22;;;;;;;9.07;6.90;;;;;;;14.35;100.00;99950.63;4907705;29;20138;-87
2023/08/07 01:23:50;;;;;;;8.65;6.38;;;;;;;14.29;100.00;99946.44;4935924;29;20126;-89
2023/08/07 01:26:20;;;;;;;8.43;6.78;;;;;;;14.27;100.00;99947.41;4920352;29;20134;-91
2023/08/07 01:29:25;;;;;;;9.85;6.35;;;;;;;14.26;100.00;99949.16;4925677;29;20126;-88
2023/08/07 01:31:56;;;;;;;13.57;8.15;;;;;;;14.22;100.00;99952.81;4941560;29;20050;-88
2023/08/07 01:34:25;;;;;;;10.50;7.80;;;;;;;14.21;100.00;99948.50;4903134;29;20102;-88
2023/08/07 01:36:54;;;;;;;11.60;8.50;;;;;;;14.19;100.00;99945.03;4917825;29;20126;-88
2023/08/07 01:39:23;;;;;;;8.48;7.63;;;;;;;14.14;100.00;99942.56;4904786;29;20099;-89
2023/08/07 01:41:51;;;;;;;14.60;8.00;;;;;;;14.10;100.00;99946.22;4920889;29;20055;-89
2023/08/07 01:44:18;;;;;;;16.08;9.20;;;;;;;14.09;100.00;99943.66;4922396;29;20054;-89
2023/08/07 01:46:44;;;;;;;14.60;8.90;;;;;;;14.07;100.00;99943.72;4934803;29;20051;-88
2023/08/07 01:49:11;;;;;;;12.57;8.15;;;;;;;14.07;100.00;99947.19;4901182;29;20044;-88
2023/08/07 01:51:38;;;;;;;11.13;8.65;;;;;;;14.09;100.00;99944.50;4929857;29;20066;-88
2023/08/07 01:54:04;;;;;;;11.45;8.15;;;;;;;14.11;100.00;99941.84;4930776;29;20047;-88
2023/08/07 01:56:31;;;;;;;8.80;7.28;;;;;;;14.14;100.00;99936.44;4914928;29;20107;-88
2023/08/07 01:58:58;;;;;;;12.27;7.20;;;;;;;14.14;100.00;99946.97;4945135;29;20126;-88
2023/08/07 02:01:25;;;;;;;10.57;7.15;;;;;;;14.11;100.00;99937.41;4911612;29;20051;-88
2023/08/07 02:03:52;;;;;;;8.25;6.10;;;;;;;14.13;100.00;99929.47;4918279;29;20078;-89
2023/08/07 02:06:18;;;;;;;9.73;6.53;;;;;;;14.10;100.00;99933.06;4918921;29;20094;-88
2023/08/07 02:08:45;;;;;;;8.45;6.15;;;;;;;14.09;100.00;99933.97;4934840;29;20121;-87
2023/08/07 02:11:12;;;;;;;7.90;5.45;;;;;;;14.09;100.00;99931.34;4937369;29;20043;-87
2023/08/07 02:13:39;;;;;;;6.38;5.65;;;;;;;14.06;100.00;99932.31;4917154;29;20119;-89
2023/08/07 02:16:06;;;;;;;11.48;6.20;;;;;;;14.00;100.00;99936.94;4921321;29;20102;-87
2023/08/07 02:18:33;;;;;;;10.80;6.50;;;;;;;13.97;100.00;99939.69;4935912;29;20095;-88
2023/08/07 02:21:00;;;;;;;8.18;5.65;;;;;;;13.92;100.00;99942.44;4906329;29;20043;-87
2023/08/07 02:23:28;;;;;;;11.55;5.45;;;;;;;13.86;100.00;99945.31;4921947;29;20061;-89
2023/08/07 02:25:55;;;;;;;8.10;5.75;;;;;;;13.79;100.00;99942.00;4916745;29;20058;-89
2023/08/07 02:28:25;;;;;;;8.00;5.75;;;;;;;13.72;100.00;99933.47;4932295;29;20044;-88
2023/08/07 02:30:55;;;;;;;8.38;6.05;;;;;;;13.73;100.00;99945.72;4922140;29;20107;-88
2023/08/07 02:33:22;;;;;;;9.52;5.85;;;;;;;13.74;100.00;99943.97;4944506;29;20043;-87
2023/08/07 02:35:50;;;;;;;8.25;6.95;;;;;;;13.78;100.00;99937.69;4927186;29;20075;-87
2023/08/07 02:38:17;;;;;;;9.25;6.53;;;;;;;13.81;100.00;99939.34;4946350;29;20176;-88
2023/08/07 02:40:44;;;;;;;10.57;6.78;;;;;;;13.80;100.00;99933.19;4905941;29;20058;-88
2023/08/07 02:43:11;;;;;;;9.85;5.65;;;;;;;13.77;100.00;99938.59;4914842;29;20043;-88
2023/08/07 02:45:38;;;;;;;7.57;5.88;;;;;;;13.82;100.00;99928.75;4922210;29;20045;-89
2023/08/07 02:48:05;;;;;;;9.90;6.32;;;;;;;13.86;100.00;99940.06;4922910;29;20043;-89
2023/08/07 02:50:32;;;;;;;8.50;5.60;;;;;;;13.82;100.00;99947.19;4932673;28;20047;-90
2023/08/07 02:53:00;;;;;;;7.68;6.30;;;;;;;13.81;100.00;99934.94;4942013;28;20518;-88
2023/08/07 02:55:29;;;;;;;8.68;6.38;;;;;;;13.79;100.00;99935.91;4917734;29;20083;-90
2023/08/07 02:57:56;;;;;;;15.27;6.55;;;;;;;13.79;100.00;99941.16;4937918;29;20067;-89
2023/08/07 03:00:23;;;;;;;8.48;6.47;;;;;;;13.79;100.00;99943.78;4905021;29;20058;-89
2023/08/07 03:02:49;;;;;;;11.70;7.50;;;;;;;13.80;100.00;99938.47;4940118;29;20107;-89
2023/08/07 03:05:16;;;;;;;11.70;5.93;;;;;;;13.82;100.00;99947.19;4920657;29;20052;-88
2023/08/07 03:07:43;;;;;;;13.35;6.75;;;;;;;13.85;100.00;99944.44;4924056;29;20043;-88
2023/08/07 03:10:10;;;;;;;7.45;5.70;;;;;;;13.89;100.00;99945.19;4928749;29;20054;-87
2023/08/07 03:12:37;;;;;;;9.77;5.90;;;;;;;13.92;100.00;99944.22;4920179;29;20055;-88
2023/08/07 03:15:12;;;;;;;9.68;5.93;;;;;;;13.92;100.00;99944.22;4929705;29;20110;-90
2023/08/07 03:17:38;;;;;;;13.25;6.60;;;;;;;13.93;100.00;99938.06;4930317;29;20063;-89
2023/08/07 03:20:06;;;;;;;10.93;6.00;;;;;;;13.94;100.00;99942.41;4910671;29;20053;-89
2023/08/07 03:22:32;;;;;;;12.25;7.05;;;;;;;13.94;100.00;99943.25;4901841;29;20713;-87
2023/08/07 03:24:59;;;;;;;15.50;7.45;;;;;;;13.97;100.00;99952.84;4940888;29;20086;-90
2023/08/07 03:27:25;;;;;;;15.95;8.38;;;;;;;13.95;100.00;99955.53;4916737;29;20404;-88
2023/08/07 03:29:52;;;;;;;10.93;7.00;;;;;;;13.95;100.00;99947.63;4922771;29;20051;-88
2023/08/07 03:32:20;;;;;;;14.07;7.55;;;;;;;13.96;100.00;99948.47;4918957;29;20095;-90
2023/08/07 03:34:47;;;;;;;12.48;6.72;;;;;;;13.99;100.00;99951.03;4899827;29;20040;-90
2023/08/07 03:37:14;;;;;;;13.38;6.40;;;;;;;13.98;100.00;99957.19;4908128;29;20047;-91
2023/08/07 03:39:43;;;;;;;9.25;6.03;;;;;;;13.94;100.00;99960.84;4922688;29;21452;-89
2023/08/07 03:42:10;;;;;;;12.48;7.15;;;;;;;13.96;100.00;99954.63;4906613;29;20074;-91
2023/08/07 03:44:36;;;;;;;11.73;6.18;;;;;;;13.98;100.00;99962.44;4903308;29;20047;-90
2023/08/07 03:47:03;;;;;;;10.25;7.13;;;;;;;14.01;100.00;99963.19;4936922;29;20040;-88
2023/08/07 03:49:30;;;;;;;13.00;8.73;;;;;;;14.00;100.00;99961.47;4943215;29;20055;-89
2023/08/07 03:51:58;;;;;;;11.30;7.72;;;;;;;14.01;100.00;99962.34;4932738;29;20087;-88
2023/08/07 03:54:26;;;;;;;14.30;7.63;;;;;;;14.02;100.00;99970.16;4925015;29;20073;-88
2023/08/07 03:56:53;;;;;;;9.63;6.35;;;;;;;14.02;100.00;99971.94;4920167;29;20086;-88
2023/08/07 03:59:19;;;;;;;12.38;7.50;;;;;;;14.05;100.00;99971.84;4923378;29;20091;-88
2023/08/07 04:01:46;;;;;;;15.45;7.75;;;;;;;14.05;100.00;99967.44;4931562;29;20066;-88
2023/08/07 04:04:14;;;;;;;12.55;6.55;;;;;;;14.05;100.00;99967.44;4900495;29;20523;-88
2023/08/07 04:06:40;;;;;;;13.02;7.75;;;;;;;14.03;100.00;99963.16;4941984;29;20071;-89
2023/08/07 04:09:09;;;;;;;12.63;7.63;;;;;;;14.04;100.00;99962.22;4942714;29;20050;-90
2023/08/07 04:11:37;;;;;;;13.48;6.95;;;;;;;14.06;100.00;99966.50;4926962;29;20067;-88
2023/08/07 04:14:03;;;;;;;8.93;6.97;;;;;;;14.09;100.00;99962.91;4951603;29;20039;-91
2023/08/07 04:16:32;;;;;;;9.15;6.10;;;;;;;14.09;100.00;99965.56;4923035;29;20155;-89
2023/08/07 04:18:58;;;;;;;9.45;6.20;;;;;;;14.10;100.00;99966.44;4925792;29;20043;-88
2023/08/07 04:21:25;;;;;;;8.38;6.15;;;;;;;14.11;100.00;99976.06;4927121;29;20051;-89
2023/08/07 04:23:52;;;;;;;12.18;6.78;;;;;;;14.12;100.00;99976.00;4928540;29;20051;-88
2023/08/07 04:26:18;;;;;;;11.43;6.75;;;;;;;14.13;100.00;99975.09;4919874;29;20122;-88
2023/08/07 04:28:45;;;;;;;11.50;6.35;;;;;;;14.13;100.00;99974.22;4939866;29;20040;-92
2023/08/07 04:31:12;;;;;;;12.93;7.45;;;;;;;14.11;100.00;99974.25;4931058;28;20036;-91
2023/08/07 04:33:39;;;;;;;10.85;7.22;;;;;;;14.14;100.00;99986.47;4938052;29;20514;-89
2023/08/07 04:36:06;;;;;;;11.10;7.10;;;;;;;14.14;100.00;99987.31;4933907;29;20043;-89
2023/08/07 04:38:36;;;;;;;14.57;7.72;;;;;;;14.16;100.00;99988.13;4907836;29;20142;-88
2023/08/07 04:41:03;;;;;;;12.40;7.25;;;;;;;14.19;100.00;99987.16;4930040;29;20348;-91
2023/08/07 04:43:30;;;;;;;9.35;6.05;;;;;;;14.17;100.00;99981.97;4920659;29;20691;-90
2023/08/07 04:45:56;;;;;;;9.70;6.30;;;;;;;14.21;100.00;99983.56;4947243;29;20047;-88
2023/08/07 04:48:25;;;;;;;7.03;5.90;;;;;;;14.18;100.00;99994.22;4935888;29;20104;-93
2023/08/07 04:50:57;;;;;;;10.73;5.97;;;;;;;14.18;100.00;99993.34;4905289;29;20110;-88
2023/08/07 04:53:24;;;;;;;13.40;6.03;;;;;;;14.23;100.00;100000.16;4944276;29;20786;-89
2023/08/07 04:55:51;;;;;;;7.22;6.32;;;;;;;14.27;100.00;99994.78;4938732;29;20322;-88
2023/08/07 04:58:18;;;;;;;7.10;5.85;;;;;;;14.33;100.00;99997.22;4924191;29;20049;-89
2023/08/07 05:00:47;;;;;;;11.88;5.85;;;;;;;14.33;100.00;99995.44;4923313;29;20051;-88
2023/08/07 05:03:15;;;;;;;11.93;6.35;;;;;;;14.36;100.00;100003.22;4941683;29;20066;-89
2023/08/07 05:05:42;;;;;;;7.22;6.25;;;;;;;14.36;100.00;100003.22;4903031;29;20050;-89
2023/08/07 05:08:08;;;;;;;6.70;5.57;;;;;;;14.39;100.00;99996.97;4926802;29;20852;-89
2023/08/07 05:10:35;;;;;;;11.00;6.65;;;;;;;14.46;100.00;100008.19;4919278;29;20127;-90
2023/08/07 05:13:02;;;;;;;7.30;5.80;;;;;;;14.47;100.00;100002.84;4923892;29;20039;-88
2023/08/07 05:15:32;;;;;;;7.88;6.15;;;;;;;14.49;100.00;100008.91;4937222;29;20362;-89
2023/08/07 05:17:59;;;;;;;12.13;6.45;;;;;;;14.51;100.00;100011.47;4905812;29;20074;-88
2023/08/07 05:20:26;;;;;;;12.90;6.93;;;;;;;14.50;100.00;100004.53;4933344;29;20055;-90
2023/08/07 05:22:53;;;;;;;9.18;5.50;;;;;;;14.50;100.00;100012.44;4937411;29;20055;-88
2023/08/07 05:25:21;;;;;;;19.58;6.18;;;;;;;14.52;100.00;100011.47;4931204;29;20055;-90
2023/08/07 05:27:48;;;;;;;10.63;5.13;;;;;;;14.53;100.00;100018.41;4896542;29;20059;-93
2023/08/07 05:30:16;;;;;;;11.43;5.68;;;;;;;14.59;100.00;100017.38;4937045;29;20051;-90
2023/08/07 05:32:43;;;;;;;5.25;4.72;;;;;;;14.68;100.00;100021.47;4925509;29;20118;-89
2023/08/07 05:35:13;;;;;;;7.35;4.75;;;;;;;14.67;100.00;100014.47;4938273;29;20080;-90
2023/08/07 05:37:41;;;;;;;7.15;4.40;;;;;;;14.68;100.00;100009.16;4926232;29;20066;-90
2023/08/07 05:40:11;;;;;;;9.85;4.97;;;;;;;14.74;100.00;100017.75;4934701;29;20096;-88
2023/08/07 05:42:38;;;;;;;6.50;4.30;;;;;;;14.76;100.00;100029.06;4921552;29;20048;-89
2023/08/07 05:45:06;;;;;;;6.45;4.57;;;;;;;14.81;100.00;100027.13;4918981;29;20083;-89
2023/08/07 05:47:33;;;;;;;6.10;4.35;;;;;;;14.84;100.00;100019.97;4937821;29;20044;-90
2023/08/07 05:50:01;;;;;;;7.93;4.80;;;;;;;14.88;100.00;100023.38;4923399;29;20055;-90
2023/08/07 05:52:29;;;;;;;6.13;4.57;;;;;;;14.88;100.00;100034.75;4942336;28;20167;-90
2023/08/07 05:54:56;;;;;;;8.88;4.15;;;;;;;14.92;100.00;100032.03;4939600;29;20069;-89
2023/08/07 05:57:22;;;;;;;9.82;2.97;;;;;;;14.85;100.00;100034.03;4934175;29;20048;-89
2023/08/07 05:59:49;;;;;;;7.93;3.50;;;;;;;14.82;100.00;100037.66;4917864;29;20415;-89
2023/08/07 06:02:16;;;;;;;5.50;3.15;;;;;;;14.82;100.00;100035.00;4931010;29;20159;-91
2023/08/07 06:04:42;;;;;;;4.97;2.97;;;;;;;14.84;100.00;100032.31;4916619;29;20384;-88
2023/08/07 06:07:10;;;;;;;4.85;3.40;;;;;;;14.83;100.00;100030.59;4915921;29;20176;-89
2023/08/07 06:09:37;;;;;;;6.68;3.72;;;;;;;14.89;100.00;100030.38;4918482;29;20266;-89
2023/08/07 06:12:04;;;;;;;3.30;3.00;;;;;;;14.96;100.00;100038.91;4939405;29;20048;-89
2023/08/07 06:14:36;;;;;;;4.50;3.05;;;;;;;15.00;100.00;100045.78;4917468;29;20495;-89
2023/08/07 06:17:03;;;;;;;7.00;2.75;;;;;;;14.99;100.00;100047.56;4920649;29;20047;-90
2023/08/07 06:19:30;;;;;;;11.38;3.45;;;;;;;15.05;100.00;100042.03;4899223;29;20067;-91
2023/08/07 06:22:01;;;;;;;4.63;2.78;;;;;;;15.07;100.00;100049.03;4929637;29;20134;-89
2023/08/07 06:24:28;;;;;;;4.88;2.40;;;;;;;15.07;100.00;100042.00;4920420;29;20048;-91
2023/08/07 06:26:55;;;;;;;4.78;3.15;;;;;;;15.07;100.00;100049.03;4941904;29;20121;-92
2023/08/07 06:29:24;;;;;;;9.15;3.72;;;;;;;15.07;100.00;100049.91;4924867;29;20121;-92
2023/08/07 06:31:51;;;;;;;12.43;4.38;;;;;;;15.09;100.00;100048.06;4906640;29;20178;-90
2023/08/07 06:34:18;;;;;;;6.32;3.22;;;;;;;15.10;100.00;100048.94;4921030;29;20044;-91
2023/08/07 06:36:45;;;;;;;3.78;2.70;;;;;;;15.15;100.00;100041.72;4945706;29;20118;-90
2023/08/07 06:39:12;;;;;;;4.88;2.70;;;;;;;15.24;100.00;100041.38;4919894;29;20107;-92
2023/08/07 06:41:39;;;;;;;5.22;3.13;;;;;;;15.34;100.00;100040.09;4951703;29;20059;-91
2023/08/07 06:44:09;;;;;;;4.05;2.63;;;;;;;15.41;100.00;100039.84;4933022;29;20063;-88
2023/08/07 06:46:35;;;;;;;5.18;3.20;;;;;;;15.53;100.00;100045.50;4939874;29;20142;-91
2023/08/07 06:49:02;;;;;;;7.97;2.53;;;;;;;15.53;100.00;100042.00;4932643;29;20530;-89
2023/08/07 06:51:29;;;;;;;3.22;2.30;;;;;;;15.55;100.00;100050.72;4942777;29;20067;-92
2023/08/07 06:53:57;;;;;;;5.20;2.25;;;;;;;15.48;100.00;100044.81;4907984;29;20052;-88
2023/08/07 06:56:23;;;;;;;3.08;1.92;;;;;;;15.44;100.00;100051.13;4910913;29;20048;-88
2023/08/07 06:58:52;;;;;;;2.63;2.20;;;;;;;15.42;100.00;100047.69;4898418;29;20592;-90
2023/08/07 07:01:19;;;;;;;4.38;2.25;;;;;;;15.38;100.00;100062.78;4901211;29;20066;-88
2023/08/07 07:03:46;;;;;;;2.13;1.95;;;;;;;15.41;100.00;100053.03;4902958;29;20403;-88
2023/08/07 07:06:14;;;;;;;4.53;2.40;;;;;;;15.45;100.00;100058.13;4894579;29;20048;-88
2023/08/07 07:08:41;;;;;;;5.15;2.42;;;;;;;15.51;100.00;100060.53;4896524;29;20103;-90
2023/08/07 07:11:09;;;;;;;2.63;2.17;;;;;;;15.53;100.00;100057.84;4920728;29;20033;-92
2023/08/07 07:13:36;;;;;;;2.13;1.95;;;;;;;15.61;100.00;100062.81;4923265;29;20053;-89
2023/08/07 07:16:03;;;;;;;2.60;2.35;;;;;;;15.65;100.00;100064.41;4904402;29;20060;-91
2023/08/07 07:18:36;;;;;;;7.07;2.75;;;;;;;15.78;100.00;100064.78;4904780;29;20055;-89
2023/08/07 07:21:02;;;;;;;5.55;1.83;;;;;;;15.96;100.00;100063.22;4908972;29;20727;-89
2023/08/07 07:23:32;;;;;;;5.75;2.50;;;;;;;16.04;100.00;100067.25;4915918;29;20056;-93
2023/08/07 07:25:59;;;;;;;3.58;1.95;;;;;;;16.15;100.00;100068.59;4927402;29;20055;-86
2023/08/07 07:28:26;;;;;;;4.78;2.25;;;;;;;16.18;100.00;100076.41;4888547;29;20136;-91
2023/08/07 07:30:52;;;;;;;3.03;2.13;;;;;;;16.26;100.00;100076.09;4900696;29;20059;-90
2023/08/07 07:33:21;;;;;;;4.70;2.20;;;;;;;16.46;100.00;100069.94;4909792;29;20084;-90
2023/08/07 07:35:47;;;;;;;2.65;1.73;;;;;;;16.46;100.00;100076.06;4905924;29;20115;-89
2023/08/07 07:38:16;;;;;;;2.70;1.95;;;;;;;16.50;100.00;100076.81;4897578;29;20054;-89
2023/08/07 07:40:43;;;;;;;5.47;2.13;;;;;;;16.49;100.00;100083.88;4911792;29;20049;-88
2023/08/07 07:43:11;;;;;;;10.95;2.95;;;;;;;16.52;100.00;100083.75;4893202;29;20045;-89
2023/08/07 07:45:43;;;;;;;7.28;3.28;;;;;;;16.50;100.00;100092.66;4916097;29;20136;-90
2023/08/07 07:48:11;;;;;;;6.18;2.00;;;;;;;16.72;100.00;100094.38;4893803;29;20060;-89
2023/08/07 07:50:45;;;;;;;5.38;2.03;;;;;;;16.83;100.00;100086.81;4897611;29;20049;-88
2023/08/07 07:53:15;;;;;;;3.85;2.33;;;;;;;16.79;100.00;100094.06;4905135;29;20139;-89
2023/08/07 07:55:51;;;;;;;3.30;1.88;;;;;;;16.80;100.00;100087.81;4901891;29;20465;-92
2023/08/07 07:58:20;;;;;;;;;;;;;;;16.82;100.00;100083.34;4920200;29;20448;-91
2023/08/07 08:00:48;;;;;;;4.25;2.13;;;;;;;16.98;100.00;100080.91;4921447;29;19926;-90
2023/08/07 08:03:16;;;;;;;2.88;2.17;;;;;;;17.33;100.00;100099.59;4941389;29;20075;-92
2023/08/07 08:05:43;;;;;;;3.25;2.47;;;;;;;17.77;98.17;100097.56;4921900;29;20039;-92
2023/08/07 08:08:12;;;;;;;3.95;1.85;;;;;;;18.01;97.64;100098.22;4945839;29;20114;-90
2023/08/07 08:10:41;;;;;;;4.05;1.55;;;;;;;18.21;96.18;100096.38;4938791;29;20044;-89
2023/08/07 08:13:11;;;;;;;3.75;1.70;;;;;;;18.05;92.58;100099.78;4900807;29;20075;-87
2023/08/07 08:15:38;;;;;;;5.10;2.05;;;;;;;17.88;94.58;100105.03;4941390;29;20052;-87
2023/08/07 08:18:05;;;;;;;6.18;2.30;;;;;;;17.60;95.78;100099.25;4921834;29;20044;-89
2023/08/07 08:20:35;;;;;;;3.85;2.00;;;;;;;17.36;97.61;100109.19;4938210;29;20052;-91
2023/08/07 08:23:04;;;;;;;4.13;1.48;;;;;;;17.14;100.00;100107.53;4923795;29;20059;-89
2023/08/07 08:25:33;;;;;;;3.03;1.35;;;;;;;17.14;100.00;100104.88;4929299;29;20048;-88
2023/08/07 08:28:03;;;;;;;5.72;1.75;;;;;;;17.22;99.87;100106.31;4923094;29;20048;-89
2023/08/07 08:30:30;;;;;;;3.10;1.00;;;;;;;17.30;97.95;100112.09;4932450;29;20071;-89
2023/08/07 08:32:59;;;;;;;1.52;1.40;;;;;;;17.40;98.66;100116.03;4923230;29;20043;-90
2023/08/07 08:35:26;;;;;;;2.38;2.03;;;;;;;17.59;97.65;100116.06;4919625;29;20090;-90
2023/08/07 08:37:54;;;;;;;9.35;2.53;;;;;;;17.78;96.79;100125.78;4922717;28;20380;-87
2023/08/07 08:40:25;;;;;;;2.95;1.35;;;;;;;17.88;94.12;100120.91;4924053;29;20055;-89
2023/08/07 08:42:53;;;;;;;3.70;1.85;;;;;;;18.28;90.30;100113.72;4914238;29;20931;-89
2023/08/07 08:45:21;;;;;;;4.35;2.05;;;;;;;19.03;88.65;100111.66;4945344;29;20055;-90
2023/08/07 08:47:52;;;;;;;3.17;1.90;;;;;;;19.32;85.62;100118.06;4933179;29;20051;-90
2023/08/07 08:50:23;;;;;;;4.85;2.05;;;;;;;19.67;84.24;100119.72;4947579;29;20052;-90
2023/08/07 08:52:52;;;;;;;7.78;2.97;;;;;;;19.45;84.55;100120.03;4926376;29;20092;-90
2023/08/07 08:55:26;;;;;;;4.13;1.95;;;;;;;18.97;86.22;100126.09;4936400;29;20496;-90
2023/08/07 08:57:53;;;;;;;3.70;1.10;;;;;;;18.74;88.12;100134.38;4921134;29;20540;-89
2023/08/07 09:00:21;;;;;;;4.15;2.40;;;;;;;18.27;90.72;100134.03;4917767;29;20054;-89
2023/08/07 09:02:52;;;;;;;6.68;2.17;;;;;;;17.60;98.82;100178.66;4925181;29;20111;-88
2023/08/07 09:05:22;;;;;;;8.27;2.92;;;;;;;16.80;100.00;100169.75;4912910;29;20141;-87
2023/08/07 09:07:50;;;;;;;3.83;1.73;;;;;;;16.04;100.00;100177.28;4907079;29;20044;-94
2023/08/07 09:10:23;;;;;;;6.50;2.00;;;;;;;15.55;100.00;100174.69;4906645;29;20099;-89
2023/08/07 09:13:10;;;;;;;9.20;1.98;;;;;;;15.34;100.00;100165.81;4936496;29;20069;-88
2023/08/07 09:15:41;;;;;;;3.03;2.38;;;;;;;15.43;100.00;100159.34;4918435;29;20067;-88
2023/08/07 09:18:10;;;;;;;5.68;1.90;;;;;;;15.70;100.00;100160.09;4919209;29;20052;-89
2023/08/07 09:20:39;;;;;;;5.40;1.85;;;;;;;16.01;100.00;100164.22;4916250;29;20051;-89
2023/08/07 09:23:06;;;;;;;5.00;1.15;;;;;;;16.23;100.00;100172.13;4925170;29;20045;-86
2023/08/07 09:25:37;;;;;;;4.13;1.15;;;;;;;16.48;100.00;100165.84;4907950;29;20079;-92
2023/08/07 09:28:09;;;;;;;4.65;1.63;;;;;;;17.44;100.00;100170.56;4928954;29;20067;-88
2023/08/07 09:30:44;;;;;;;7.57;2.47;;;;;;;19.49;93.94;100164.09;4926306;29;20107;-90
2023/08/07 09:33:10;;;;;;;10.57;2.80;;;;;;;21.46;86.03;100158.97;4902085;29;20067;-88
2023/08/07 09:35:41;;;;;;;5.40;2.72;;;;;;;22.35;78.87;100152.41;4938722;29;20142;-90
2023/08/07 09:38:08;;;;;;;4.05;1.92;;;;;;;22.67;79.36;100165.44;4925939;29;20043;-87
2023/08/07 09:40:35;;;;;;;7.07;2.47;;;;;;;23.53;75.11;100157.78;4919615;29;20051;-88
2023/08/07 09:43:03;;;;;;;10.68;2.25;;;;;;;23.97;66.11;100158.25;4922136;29;20047;-88
2023/08/07 09:45:36;;;;;;;3.53;1.88;;;;;;;23.17;69.38;100168.28;4940915;29;20119;-93
2023/08/07 09:48:11;;;;;;;6.35;2.88;;;;;;;21.63;75.04;100161.44;4921067;29;20480;-89
2023/08/07 09:50:42;;;;;;;3.08;1.40;;;;;;;20.50;78.77;100172.66;4909706;29;20058;-87
2023/08/07 09:53:12;;;;;;;9.75;3.08;;;;;;;19.64;82.80;100183.63;4905752;29;20052;-88
2023/08/07 09:55:47;;;;;;;7.65;3.95;;;;;;;19.07;88.02;100182.16;4942101;29;20036;-91
2023/08/07 09:58:15;;;;;;;7.88;3.58;;;;;;;18.44;90.47;100174.75;4912437;29;20460;-87
2023/08/07 10:00:42;;;;;;;7.30;2.00;;;;;;;18.34;91.13;100179.63;4926244;29;20043;-88
2023/08/07 10:03:12;;;;;;;2.10;1.15;;;;;;;18.54;90.16;100188.38;4932815;29;20051;-89
2023/08/07 10:05:38;;;;;;;3.22;1.33;;;;;;;19.17;87.40;100190.53;4909998;29;20048;-90
2023/08/07 10:08:08;;;;;;;1.98;1.13;;;;;;;19.60;85.31;100185.56;4932723;29;20122;-90
2023/08/07 10:10:35;;;;;;;4.30;1.58;;;;;;;19.98;84.17;100182.63;4919471;29;20051;-89
2023/08/07 10:13:02;;;;;;;14.02;5.43;;;;;;;20.21;80.06;100187.59;4918146;29;20147;-90
2023/08/07 10:15:37;;;;;;;5.70;4.10;;;;;;;20.93;73.70;100179.94;4922439;29;20055;-91
2023/08/07 10:18:06;;;;;;;9.55;3.83;;;;;;;21.42;69.25;100182.25;4920736;29;20044;-87
2023/08/07 10:20:33;;;;;;;5.00;3.00;;;;;;;22.22;68.33;100175.50;4911080;29;20286;-90
2023/08/07 10:23:12;;;;;;;4.38;2.50;;;;;;;22.89;64.47;100204.88;4911213;29;20293;-89
2023/08/07 10:25:47;;;;;;;4.38;1.17;;;;;;;22.73;66.38;100199.69;4941169;29;20044;-88
2023/08/07 10:28:29;;;;;;;5.32;1.50;;;;;;;22.12;67.74;100189.44;4927185;29;20282;-88
2023/08/07 10:31:01;;;;;;;3.95;1.17;;;;;;;23.50;64.08;100188.25;4929333;29;20048;-89
2023/08/07 10:33:28;;;;;;;4.50;2.42;;;;;;;24.07;59.84;100189.53;4914100;29;20055;-88
2023/08/07 10:36:10;;;;;;;3.22;1.98;;;;;;;24.67;57.29;100186.09;4929905;29;20069;-87
2023/08/07 10:38:39;;;;;;;3.95;1.23;;;;;;;23.89;59.36;100174.81;4923042;29;20044;-92
2023/08/07 10:41:17;;;;;;;2.90;1.23;;;;;;;23.76;60.36;100189.03;4925308;29;20480;-89
2023/08/07 10:43:48;;;;;;;2.78;1.00;;;;;;;24.39;55.42;100188.13;4939052;28;20115;-89
2023/08/07 10:46:22;;;;;;;3.40;1.02;;;;;;;23.86;55.85;100183.06;4951147;29;20521;-91
2023/08/07 10:49:01;;;;;;;6.68;2.58;;;;;;;22.73;60.20;100193.50;4943159;29;20428;-87
2023/08/07 10:51:31;;;;;;;5.43;2.38;;;;;;;21.88;62.56;100188.34;4947048;29;20062;-91
2023/08/07 10:54:00;;;;;;;3.40;2.35;;;;;;;21.57;65.51;100196.44;4942843;29;20111;-91
2023/08/07 10:56:40;;;;;;;8.80;4.57;;;;;;;22.22;63.82;100186.16;4938834;29;20495;-90
2023/08/07 10:59:17;;;;;;;8.77;4.35;;;;;;;23.67;57.58;100172.84;4911978;29;20044;-89
2023/08/07 11:02:02;;;;;;;5.55;2.42;;;;;;;24.79;51.43;100195.84;4934484;29;20046;-88
2023/08/07 11:04:29;;;;;;;8.88;2.78;;;;;;;25.82;47.90;100183.44;4919116;29;20062;-89
2023/08/07 11:06:59;;;;;;;6.95;2.88;;;;;;;26.13;48.52;100178.31;4930325;29;20056;-90
2023/08/07 11:09:26;;;;;;;2.75;1.70;;;;;;;26.61;45.70;100177.00;4917421;29;20052;-91
2023/08/07 11:12:02;;;;;;;5.25;2.08;;;;;;;25.63;47.28;100198.34;4905327;29;20825;-92
2023/08/07 11:14:29;;;;;;;3.30;1.65;;;;;;;23.74;51.06;100196.34;4918980;29;20099;-89
2023/08/07 11:16:58;;;;;;;3.13;1.30;;;;;;;22.77;55.48;100217.19;4902922;29;20047;-89
2023/08/07 11:19:25;;;;;;;4.03;1.20;;;;;;;22.83;56.70;100215.06;4917768;29;20111;-87
2023/08/07 11:21:57;;;;;;;4.32;1.15;;;;;;;24.25;51.86;100207.88;4920631;29;20059;-89
2023/08/07 11:24:27;;;;;;;3.45;1.45;;;;;;;24.90;46.42;100197.69;4932082;29;20087;-88
2023/08/07 11:26:58;;;;;;;3.33;1.80;;;;;;;23.96;46.97;100197.47;4917108;29;20095;-88
2023/08/07 11:29:28;;;;;;;4.50;1.20;;;;;;;22.40;51.23;100216.16;4928816;29;20103;-90